sensor_id;sensor_type;location;lat;lon;timestamp;P1;durP1;ratioP1;P2;durP2;ratioP2
69401;SDS011;56589;51.992;5.924;2023-04-06T00:00:21;9.82;;;5.85;;
69401;SDS011;56589;51.992;5.924;2023-04-06T00:02:47;12.88;;;6.63;;
69401;SDS011;56589;51.992;5.924;2023-04-06T00:05:13;12.82;;;5.80;;
69401;SDS011;56589;51.992;5.924;2023-04-06T00:07:39;9.05;;;5.85;;
69401;SDS011;56589;51.992;5.924;2023-04-06T00:10:05;13.43;;;6.22;;
69401;SDS011;56589;51.992;5.924;2023-04-06T00:12:35;11.50;;;6.38;;
69401;SDS011;56589;51.992;5.924;2023-04-06T00:15:01;9.27;;;5.47;;
69401;SDS011;56589;51.992;5.924;2023-04-06T00:17:27;10.52;;;6.30;;
69401;SDS011;56589;51.992;5.924;2023-04-06T00:19:53;13.90;;;6.10;;
69401;SDS011;56589;51.992;5.924;2023-04-06T00:22:19;9.55;;;5.40;;
69401;SDS011;56589;51.992;5.924;2023-04-06T00:24:44;9.63;;;5.88;;
69401;SDS011;56589;51.992;5.924;2023-04-06T00:27:10;11.10;;;6.45;;
69401;SDS011;56589;51.992;5.924;2023-04-06T00:29:39;9.70;;;6.10;;
69401;SDS011;56589;51.992;5.924;2023-04-06T00:32:05;8.80;;;5.93;;
69401;SDS011;56589;51.992;5.924;2023-04-06T00:34:31;12.65;;;6.43;;
69401;SDS011;56589;51.992;5.924;2023-04-06T00:36:57;10.98;;;6.18;;
69401;SDS011;56589;51.992;5.924;2023-04-06T00:39:22;11.20;;;6.60;;
69401;SDS011;56589;51.992;5.924;2023-04-06T00:41:49;11.75;;;5.75;;
69401;SDS011;56589;51.992;5.924;2023-04-06T00:44:18;11.25;;;6.07;;
69401;SDS011;56589;51.992;5.924;2023-04-06T00:46:47;12.23;;;6.47;;
69401;SDS011;56589;51.992;5.924;2023-04-06T00:49:13;9.80;;;6.30;;
69401;SDS011;56589;51.992;5.924;2023-04-06T00:51:39;9.38;;;6.03;;
69401;SDS011;56589;51.992;5.924;2023-04-06T00:54:05;11.40;;;6.57;;
69401;SDS011;56589;51.992;5.924;2023-04-06T00:56:31;14.15;;;6.63;;
69401;SDS011;56589;51.992;5.924;2023-04-06T00:59:00;12.68;;;6.53;;
69401;SDS011;56589;51.992;5.924;2023-04-06T01:01:26;10.95;;;5.72;;
69401;SDS011;56589;51.992;5.924;2023-04-06T01:03:56;12.80;;;7.05;;
69401;SDS011;56589;51.992;5.924;2023-04-06T01:06:22;11.45;;;6.40;;
69401;SDS011;56589;51.992;5.924;2023-04-06T01:08:48;11.60;;;6.05;;
69401;SDS011;56589;51.992;5.924;2023-04-06T01:11:13;11.07;;;6.90;;
69401;SDS011;56589;51.992;5.924;2023-04-06T01:13:39;12.82;;;6.90;;
69401;SDS011;56589;51.992;5.924;2023-04-06T01:16:05;9.30;;;6.25;;
69401;SDS011;56589;51.992;5.924;2023-04-06T01:18:32;11.18;;;6.65;;
69401;SDS011;56589;51.992;5.924;2023-04-06T01:21:00;11.50;;;6.78;;
69401;SDS011;56589;51.992;5.924;2023-04-06T01:25:57;12.13;;;6.88;;
69401;SDS011;56589;51.992;5.924;2023-04-06T01:28:23;13.00;;;7.38;;
69401;SDS011;56589;51.992;5.924;2023-04-06T01:30:48;10.20;;;6.55;;
69401;SDS011;56589;51.992;5.924;2023-04-06T01:33:14;10.20;;;5.63;;
69401;SDS011;56589;51.992;5.924;2023-04-06T01:35:40;11.10;;;6.75;;
69401;SDS011;56589;51.992;5.924;2023-04-06T01:38:06;11.30;;;6.70;;
69401;SDS011;56589;51.992;5.924;2023-04-06T01:40:35;15.52;;;7.03;;
69401;SDS011;56589;51.992;5.924;2023-04-06T01:43:03;15.02;;;6.60;;
69401;SDS011;56589;51.992;5.924;2023-04-06T01:45:28;14.20;;;7.07;;
69401;SDS011;56589;51.992;5.924;2023-04-06T01:47:54;10.18;;;6.43;;
69401;SDS011;56589;51.992;5.924;2023-04-06T01:50:20;11.45;;;6.65;;
69401;SDS011;56589;51.992;5.924;2023-04-06T01:52:46;12.88;;;7.18;;
69401;SDS011;56589;51.992;5.924;2023-04-06T01:55:11;10.45;;;6.35;;
69401;SDS011;56589;51.992;5.924;2023-04-06T01:57:40;10.60;;;6.75;;
69401;SDS011;56589;51.992;5.924;2023-04-06T02:00:06;11.77;;;6.50;;
69401;SDS011;56589;51.992;5.924;2023-04-06T02:02:33;12.68;;;6.75;;
69401;SDS011;56589;51.992;5.924;2023-04-06T02:04:59;12.15;;;6.60;;
69401;SDS011;56589;51.992;5.924;2023-04-06T02:07:25;11.88;;;7.10;;
69401;SDS011;56589;51.992;5.924;2023-04-06T02:09:53;11.07;;;7.20;;
69401;SDS011;56589;51.992;5.924;2023-04-06T02:12:20;11.13;;;7.07;;
69401;SDS011;56589;51.992;5.924;2023-04-06T02:14:48;12.40;;;6.95;;
69401;SDS011;56589;51.992;5.924;2023-04-06T02:17:14;12.60;;;7.32;;
69401;SDS011;56589;51.992;5.924;2023-04-06T02:19:40;16.42;;;7.47;;
69401;SDS011;56589;51.992;5.924;2023-04-06T02:22:06;12.40;;;7.90;;
69401;SDS011;56589;51.992;5.924;2023-04-06T02:24:31;13.45;;;7.18;;
69401;SDS011;56589;51.992;5.924;2023-04-06T02:26:58;13.68;;;7.53;;
69401;SDS011;56589;51.992;5.924;2023-04-06T02:29:24;11.95;;;7.00;;
69401;SDS011;56589;51.992;5.924;2023-04-06T02:31:53;11.07;;;6.57;;
69401;SDS011;56589;51.992;5.924;2023-04-06T02:34:18;13.43;;;7.38;;
69401;SDS011;56589;51.992;5.924;2023-04-06T02:36:44;12.60;;;7.00;;
69401;SDS011;56589;51.992;5.924;2023-04-06T02:39:10;14.32;;;6.93;;
69401;SDS011;56589;51.992;5.924;2023-04-06T02:41:36;14.20;;;7.38;;
69401;SDS011;56589;51.992;5.924;2023-04-06T02:44:02;12.25;;;6.60;;
69401;SDS011;56589;51.992;5.924;2023-04-06T02:46:28;12.00;;;7.47;;
69401;SDS011;56589;51.992;5.924;2023-04-06T02:48:57;12.70;;;6.90;;
69401;SDS011;56589;51.992;5.924;2023-04-06T02:51:22;13.88;;;7.72;;
69401;SDS011;56589;51.992;5.924;2023-04-06T02:53:48;12.10;;;7.72;;
69401;SDS011;56589;51.992;5.924;2023-04-06T02:56:14;10.07;;;7.55;;
69401;SDS011;56589;51.992;5.924;2023-04-06T02:58:39;12.90;;;7.47;;
69401;SDS011;56589;51.992;5.924;2023-04-06T03:01:05;14.05;;;7.43;;
69401;SDS011;56589;51.992;5.924;2023-04-06T03:03:31;13.85;;;7.63;;
69401;SDS011;56589;51.992;5.924;2023-04-06T03:05:59;15.52;;;7.50;;
69401;SDS011;56589;51.992;5.924;2023-04-06T03:08:25;10.93;;;6.68;;
69401;SDS011;56589;51.992;5.924;2023-04-06T03:10:51;13.30;;;7.43;;
69401;SDS011;56589;51.992;5.924;2023-04-06T03:13:17;13.25;;;7.60;;
69401;SDS011;56589;51.992;5.924;2023-04-06T03:15:43;11.15;;;6.85;;
69401;SDS011;56589;51.992;5.924;2023-04-06T03:18:09;15.75;;;7.70;;
69401;SDS011;56589;51.992;5.924;2023-04-06T03:20:34;14.02;;;7.57;;
69401;SDS011;56589;51.992;5.924;2023-04-06T03:23:03;11.68;;;6.97;;
69401;SDS011;56589;51.992;5.924;2023-04-06T03:25:29;12.07;;;7.53;;
69401;SDS011;56589;51.992;5.924;2023-04-06T03:27:54;15.00;;;7.95;;
69401;SDS011;56589;51.992;5.924;2023-04-06T03:30:22;13.35;;;7.97;;
69401;SDS011;56589;51.992;5.924;2023-04-06T03:32:48;15.23;;;8.02;;
69401;SDS011;56589;51.992;5.924;2023-04-06T03:35:14;12.13;;;7.20;;
69401;SDS011;56589;51.992;5.924;2023-04-06T03:37:40;16.80;;;7.97;;
69401;SDS011;56589;51.992;5.924;2023-04-06T03:40:09;13.02;;;7.65;;
69401;SDS011;56589;51.992;5.924;2023-04-06T03:42:35;12.82;;;7.97;;
69401;SDS011;56589;51.992;5.924;2023-04-06T03:45:01;13.95;;;7.85;;
69401;SDS011;56589;51.992;5.924;2023-04-06T03:47:28;12.63;;;8.27;;
69401;SDS011;56589;51.992;5.924;2023-04-06T03:49:53;16.48;;;7.72;;
69401;SDS011;56589;51.992;5.924;2023-04-06T03:52:19;11.48;;;7.63;;
69401;SDS011;56589;51.992;5.924;2023-04-06T03:54:45;14.38;;;8.07;;
69401;SDS011;56589;51.992;5.924;2023-04-06T03:57:13;15.52;;;7.82;;
69401;SDS011;56589;51.992;5.924;2023-04-06T03:59:39;12.80;;;7.80;;
69401;SDS011;56589;51.992;5.924;2023-04-06T04:02:05;13.02;;;8.38;;
69401;SDS011;56589;51.992;5.924;2023-04-06T04:04:31;11.75;;;7.28;;
69401;SDS011;56589;51.992;5.924;2023-04-06T04:06:56;15.32;;;8.65;;
69401;SDS011;56589;51.992;5.924;2023-04-06T04:09:22;13.50;;;8.00;;
69401;SDS011;56589;51.992;5.924;2023-04-06T04:11:48;17.70;;;8.23;;
69401;SDS011;56589;51.992;5.924;2023-04-06T04:14:16;12.10;;;7.32;;
69401;SDS011;56589;51.992;5.924;2023-04-06T04:16:42;12.80;;;7.55;;
69401;SDS011;56589;51.992;5.924;2023-04-06T04:19:08;12.35;;;7.78;;
69401;SDS011;56589;51.992;5.924;2023-04-06T04:21:34;13.48;;;8.02;;
69401;SDS011;56589;51.992;5.924;2023-04-06T04:24:08;12.98;;;8.02;;
69401;SDS011;56589;51.992;5.924;2023-04-06T04:26:33;12.75;;;7.88;;
69401;SDS011;56589;51.992;5.924;2023-04-06T04:28:59;13.88;;;8.15;;
69401;SDS011;56589;51.992;5.924;2023-04-06T04:31:27;15.90;;;8.43;;
69401;SDS011;56589;51.992;5.924;2023-04-06T04:33:53;14.18;;;8.07;;
69401;SDS011;56589;51.992;5.924;2023-04-06T04:36:19;15.18;;;7.90;;
69401;SDS011;56589;51.992;5.924;2023-04-06T04:38:45;14.18;;;8.45;;
69401;SDS011;56589;51.992;5.924;2023-04-06T04:41:10;14.80;;;7.63;;
69401;SDS011;56589;51.992;5.924;2023-04-06T04:43:36;14.52;;;8.73;;
69401;SDS011;56589;51.992;5.924;2023-04-06T04:46:04;11.63;;;7.32;;
69401;SDS011;56589;51.992;5.924;2023-04-06T04:48:32;13.77;;;8.05;;
69401;SDS011;56589;51.992;5.924;2023-04-06T04:50:58;13.73;;;8.48;;
69401;SDS011;56589;51.992;5.924;2023-04-06T04:53:24;15.57;;;8.90;;
69401;SDS011;56589;51.992;5.924;2023-04-06T04:55:49;15.85;;;8.15;;
69401;SDS011;56589;51.992;5.924;2023-04-06T04:58:18;15.32;;;8.57;;
69401;SDS011;56589;51.992;5.924;2023-04-06T05:00:44;14.82;;;8.93;;
69401;SDS011;56589;51.992;5.924;2023-04-06T05:03:10;15.52;;;8.77;;
69401;SDS011;56589;51.992;5.924;2023-04-06T05:05:45;14.27;;;7.70;;
69401;SDS011;56589;51.992;5.924;2023-04-06T05:08:11;13.43;;;8.20;;
69401;SDS011;56589;51.992;5.924;2023-04-06T05:10:41;19.55;;;8.52;;
69401;SDS011;56589;51.992;5.924;2023-04-06T05:13:07;12.82;;;8.55;;
69401;SDS011;56589;51.992;5.924;2023-04-06T05:15:33;19.30;;;9.57;;
69401;SDS011;56589;51.992;5.924;2023-04-06T05:17:59;16.70;;;8.40;;
69401;SDS011;56589;51.992;5.924;2023-04-06T05:20:25;13.50;;;8.13;;
69401;SDS011;56589;51.992;5.924;2023-04-06T05:22:54;16.20;;;8.95;;
69401;SDS011;56589;51.992;5.924;2023-04-06T05:25:20;16.13;;;9.68;;
69401;SDS011;56589;51.992;5.924;2023-04-06T05:27:46;16.88;;;8.88;;
69401;SDS011;56589;51.992;5.924;2023-04-06T05:30:12;13.25;;;8.30;;
69401;SDS011;56589;51.992;5.924;2023-04-06T05:32:38;15.77;;;9.07;;
69401;SDS011;56589;51.992;5.924;2023-04-06T05:35:05;18.27;;;9.27;;
69401;SDS011;56589;51.992;5.924;2023-04-06T05:37:31;15.60;;;9.40;;
69401;SDS011;56589;51.992;5.924;2023-04-06T05:39:59;15.15;;;8.45;;
69401;SDS011;56589;51.992;5.924;2023-04-06T05:42:25;16.23;;;9.63;;
69401;SDS011;56589;51.992;5.924;2023-04-06T05:44:51;19.83;;;9.23;;
69401;SDS011;56589;51.992;5.924;2023-04-06T05:47:16;15.40;;;9.48;;
69401;SDS011;56589;51.992;5.924;2023-04-06T05:49:42;17.02;;;8.80;;
69401;SDS011;56589;51.992;5.924;2023-04-06T05:52:08;14.50;;;8.23;;
69401;SDS011;56589;51.992;5.924;2023-04-06T05:54:37;20.52;;;9.68;;
69401;SDS011;56589;51.992;5.924;2023-04-06T05:57:05;15.00;;;9.27;;
69401;SDS011;56589;51.992;5.924;2023-04-06T05:59:31;14.57;;;9.32;;
69401;SDS011;56589;51.992;5.924;2023-04-06T06:01:57;13.27;;;8.55;;
69401;SDS011;56589;51.992;5.924;2023-04-06T06:04:22;16.42;;;9.38;;
69401;SDS011;56589;51.992;5.924;2023-04-06T06:06:48;18.08;;;9.23;;
69401;SDS011;56589;51.992;5.924;2023-04-06T06:09:14;15.13;;;8.88;;
69401;SDS011;56589;51.992;5.924;2023-04-06T06:11:40;20.45;;;10.10;;
69401;SDS011;56589;51.992;5.924;2023-04-06T06:14:09;18.13;;;9.32;;
69401;SDS011;56589;51.992;5.924;2023-04-06T06:16:35;14.80;;;9.23;;
69401;SDS011;56589;51.992;5.924;2023-04-06T06:19:01;24.98;;;11.05;;
69401;SDS011;56589;51.992;5.924;2023-04-06T06:21:27;16.27;;;9.77;;
69401;SDS011;56589;51.992;5.924;2023-04-06T06:23:53;17.63;;;10.07;;
69401;SDS011;56589;51.992;5.924;2023-04-06T06:26:19;17.50;;;9.10;;
69401;SDS011;56589;51.992;5.924;2023-04-06T06:28:45;18.20;;;9.32;;
69401;SDS011;56589;51.992;5.924;2023-04-06T06:31:13;18.83;;;11.23;;
69401;SDS011;56589;51.992;5.924;2023-04-06T06:33:39;17.95;;;10.30;;
69401;SDS011;56589;51.992;5.924;2023-04-06T06:36:05;17.52;;;9.82;;
69401;SDS011;56589;51.992;5.924;2023-04-06T06:38:32;22.88;;;9.77;;
69401;SDS011;56589;51.992;5.924;2023-04-06T06:40:57;17.52;;;10.00;;
69401;SDS011;56589;51.992;5.924;2023-04-06T06:43:23;17.02;;;10.38;;
69401;SDS011;56589;51.992;5.924;2023-04-06T06:45:49;17.77;;;10.13;;
69401;SDS011;56589;51.992;5.924;2023-04-06T06:48:18;18.00;;;10.00;;
69401;SDS011;56589;51.992;5.924;2023-04-06T06:50:44;18.13;;;10.27;;
69401;SDS011;56589;51.992;5.924;2023-04-06T06:53:12;17.77;;;10.02;;
69401;SDS011;56589;51.992;5.924;2023-04-06T06:55:39;15.27;;;10.05;;
69401;SDS011;56589;51.992;5.924;2023-04-06T06:58:05;17.77;;;10.73;;
69401;SDS011;56589;51.992;5.924;2023-04-06T07:00:31;19.38;;;10.85;;
69401;SDS011;56589;51.992;5.924;2023-04-06T07:02:57;15.98;;;10.10;;
69401;SDS011;56589;51.992;5.924;2023-04-06T07:05:25;22.48;;;10.98;;
69401;SDS011;56589;51.992;5.924;2023-04-06T07:07:51;19.20;;;11.20;;
69401;SDS011;56589;51.992;5.924;2023-04-06T07:10:17;16.52;;;10.63;;
69401;SDS011;56589;51.992;5.924;2023-04-06T07:12:43;20.40;;;10.20;;
69401;SDS011;56589;51.992;5.924;2023-04-06T07:15:09;16.25;;;10.95;;
69401;SDS011;56589;51.992;5.924;2023-04-06T07:17:35;18.45;;;10.50;;
69401;SDS011;56589;51.992;5.924;2023-04-06T07:20:01;18.92;;;10.93;;
69401;SDS011;56589;51.992;5.924;2023-04-06T07:22:30;16.52;;;10.52;;
69401;SDS011;56589;51.992;5.924;2023-04-06T07:24:56;17.67;;;10.32;;
69401;SDS011;56589;51.992;5.924;2023-04-06T07:27:22;17.58;;;11.32;;
69401;SDS011;56589;51.992;5.924;2023-04-06T07:29:47;19.30;;;10.25;;
69401;SDS011;56589;51.992;5.924;2023-04-06T07:32:13;20.90;;;11.93;;
69401;SDS011;56589;51.992;5.924;2023-04-06T07:34:39;21.38;;;11.05;;
69401;SDS011;56589;51.992;5.924;2023-04-06T07:37:05;17.70;;;11.02;;
69401;SDS011;56589;51.992;5.924;2023-04-06T07:39:33;17.77;;;11.55;;
69401;SDS011;56589;51.992;5.924;2023-04-06T07:41:59;18.67;;;10.73;;
69401;SDS011;56589;51.992;5.924;2023-04-06T07:44:25;19.42;;;12.15;;
69401;SDS011;56589;51.992;5.924;2023-04-06T07:46:51;17.85;;;11.10;;
69401;SDS011;56589;51.992;5.924;2023-04-06T07:49:16;16.15;;;10.45;;
69401;SDS011;56589;51.992;5.924;2023-04-06T07:51:42;18.13;;;10.40;;
69401;SDS011;56589;51.992;5.924;2023-04-06T07:54:08;22.15;;;12.25;;
69401;SDS011;56589;51.992;5.924;2023-04-06T07:56:37;19.05;;;11.40;;
69401;SDS011;56589;51.992;5.924;2023-04-06T07:59:03;19.48;;;11.60;;
69401;SDS011;56589;51.992;5.924;2023-04-06T08:01:29;21.60;;;10.90;;
69401;SDS011;56589;51.992;5.924;2023-04-06T08:03:54;21.30;;;12.48;;
69401;SDS011;56589;51.992;5.924;2023-04-06T08:06:21;16.95;;;11.50;;
69401;SDS011;56589;51.992;5.924;2023-04-06T08:08:47;18.77;;;12.20;;
69401;SDS011;56589;51.992;5.924;2023-04-06T08:11:13;20.25;;;10.93;;
69401;SDS011;56589;51.992;5.924;2023-04-06T08:13:41;18.10;;;10.73;;
69401;SDS011;56589;51.992;5.924;2023-04-06T08:16:07;18.17;;;11.07;;
69401;SDS011;56589;51.992;5.924;2023-04-06T08:18:33;19.23;;;11.55;;
69401;SDS011;56589;51.992;5.924;2023-04-06T08:20:59;19.88;;;11.55;;
69401;SDS011;56589;51.992;5.924;2023-04-06T08:23:25;22.08;;;12.15;;
69401;SDS011;56589;51.992;5.924;2023-04-06T08:25:51;23.40;;;11.55;;
69401;SDS011;56589;51.992;5.924;2023-04-06T08:28:17;21.88;;;10.95;;
69401;SDS011;56589;51.992;5.924;2023-04-06T08:30:46;22.23;;;12.18;;
69401;SDS011;56589;51.992;5.924;2023-04-06T08:33:12;20.20;;;11.68;;
69401;SDS011;56589;51.992;5.924;2023-04-06T08:35:38;18.17;;;11.55;;
69401;SDS011;56589;51.992;5.924;2023-04-06T08:38:04;25.38;;;11.95;;
69401;SDS011;56589;51.992;5.924;2023-04-06T08:40:35;24.25;;;12.15;;
69401;SDS011;56589;51.992;5.924;2023-04-06T08:43:02;19.70;;;11.63;;
69401;SDS011;56589;51.992;5.924;2023-04-06T08:45:33;19.70;;;10.75;;
69401;SDS011;56589;51.992;5.924;2023-04-06T08:48:03;22.13;;;11.55;;
69401;SDS011;56589;51.992;5.924;2023-04-06T08:50:30;23.00;;;11.40;;
69401;SDS011;56589;51.992;5.924;2023-04-06T08:52:58;17.83;;;10.93;;
69401;SDS011;56589;51.992;5.924;2023-04-06T08:55:25;20.52;;;11.48;;
69401;SDS011;56589;51.992;5.924;2023-04-06T08:57:52;17.10;;;10.73;;
69401;SDS011;56589;51.992;5.924;2023-04-06T09:00:19;17.63;;;10.40;;
69401;SDS011;56589;51.992;5.924;2023-04-06T09:02:46;19.02;;;11.57;;
69401;SDS011;56589;51.992;5.924;2023-04-06T09:05:17;18.17;;;10.88;;
69401;SDS011;56589;51.992;5.924;2023-04-06T09:07:44;21.08;;;11.10;;
69401;SDS011;56589;51.992;5.924;2023-04-06T09:10:10;19.10;;;11.25;;
69401;SDS011;56589;51.992;5.924;2023-04-06T09:12:36;22.52;;;11.05;;
69401;SDS011;56589;51.992;5.924;2023-04-06T09:15:03;18.88;;;11.02;;
69401;SDS011;56589;51.992;5.924;2023-04-06T09:17:31;20.02;;;11.50;;
69401;SDS011;56589;51.992;5.924;2023-04-06T09:19:58;21.08;;;12.18;;
69401;SDS011;56589;51.992;5.924;2023-04-06T09:22:34;18.77;;;11.55;;
69401;SDS011;56589;51.992;5.924;2023-04-06T09:25:00;22.20;;;12.00;;
69401;SDS011;56589;51.992;5.924;2023-04-06T09:27:30;19.05;;;12.52;;
69401;SDS011;56589;51.992;5.924;2023-04-06T09:30:02;19.33;;;11.63;;
69401;SDS011;56589;51.992;5.924;2023-04-06T09:32:29;21.58;;;12.30;;
69401;SDS011;56589;51.992;5.924;2023-04-06T09:35:04;22.08;;;11.95;;
69401;SDS011;56589;51.992;5.924;2023-04-06T09:37:37;18.73;;;12.35;;
69401;SDS011;56589;51.992;5.924;2023-04-06T09:40:03;20.45;;;12.23;;
69401;SDS011;56589;51.992;5.924;2023-04-06T09:42:31;21.73;;;13.05;;
69401;SDS011;56589;51.992;5.924;2023-04-06T09:44:57;22.73;;;11.93;;
69401;SDS011;56589;51.992;5.924;2023-04-06T09:47:23;23.92;;;12.90;;
69401;SDS011;56589;51.992;5.924;2023-04-06T09:49:50;22.10;;;12.07;;
69401;SDS011;56589;51.992;5.924;2023-04-06T09:52:22;31.88;;;12.82;;
69401;SDS011;56589;51.992;5.924;2023-04-06T09:54:55;27.17;;;13.38;;
69401;SDS011;56589;51.992;5.924;2023-04-06T09:57:28;22.15;;;13.20;;
69401;SDS011;56589;51.992;5.924;2023-04-06T10:00:05;23.08;;;13.13;;
69401;SDS011;56589;51.992;5.924;2023-04-06T10:02:34;21.45;;;13.48;;
69401;SDS011;56589;51.992;5.924;2023-04-06T10:05:16;22.20;;;13.80;;
69401;SDS011;56589;51.992;5.924;2023-04-06T10:07:50;21.67;;;12.77;;
69401;SDS011;56589;51.992;5.924;2023-04-06T10:10:26;23.85;;;14.07;;
69401;SDS011;56589;51.992;5.924;2023-04-06T10:12:53;30.95;;;14.35;;
69401;SDS011;56589;51.992;5.924;2023-04-06T10:15:21;23.00;;;14.68;;
69401;SDS011;56589;51.992;5.924;2023-04-06T10:17:47;27.80;;;13.05;;
69401;SDS011;56589;51.992;5.924;2023-04-06T10:20:14;24.55;;;13.95;;
69401;SDS011;56589;51.992;5.924;2023-04-06T10:22:51;26.05;;;15.05;;
69401;SDS011;56589;51.992;5.924;2023-04-06T10:25:30;25.02;;;14.35;;
69401;SDS011;56589;51.992;5.924;2023-04-06T10:30:29;26.17;;;13.27;;
69401;SDS011;56589;51.992;5.924;2023-04-06T10:32:57;23.25;;;13.48;;
69401;SDS011;56589;51.992;5.924;2023-04-06T10:35:23;23.52;;;13.23;;
69401;SDS011;56589;51.992;5.924;2023-04-06T10:37:52;19.80;;;11.40;;
69401;SDS011;56589;51.992;5.924;2023-04-06T10:40:25;23.05;;;11.60;;
69401;SDS011;56589;51.992;5.924;2023-04-06T10:42:55;23.13;;;12.55;;
69401;SDS011;56589;51.992;5.924;2023-04-06T10:45:32;25.10;;;11.75;;
69401;SDS011;56589;51.992;5.924;2023-04-06T10:47:58;18.42;;;12.50;;
69401;SDS011;56589;51.992;5.924;2023-04-06T10:50:24;16.58;;;10.70;;
69401;SDS011;56589;51.992;5.924;2023-04-06T10:52:59;22.60;;;12.43;;
69401;SDS011;56589;51.992;5.924;2023-04-06T10:55:27;20.05;;;11.65;;
69401;SDS011;56589;51.992;5.924;2023-04-06T10:57:56;20.63;;;12.18;;
69401;SDS011;56589;51.992;5.924;2023-04-06T11:00:22;22.30;;;12.40;;
69401;SDS011;56589;51.992;5.924;2023-04-06T11:02:48;17.80;;;11.63;;
69401;SDS011;56589;51.992;5.924;2023-04-06T11:05:14;17.42;;;11.10;;
69401;SDS011;56589;51.992;5.924;2023-04-06T11:07:40;16.95;;;10.15;;
69401;SDS011;56589;51.992;5.924;2023-04-06T11:10:07;17.48;;;10.32;;
69401;SDS011;56589;51.992;5.924;2023-04-06T11:12:34;17.98;;;10.73;;
69401;SDS011;56589;51.992;5.924;2023-04-06T11:15:03;18.75;;;10.68;;
69401;SDS011;56589;51.992;5.924;2023-04-06T11:17:30;17.02;;;10.88;;
69401;SDS011;56589;51.992;5.924;2023-04-06T11:19:57;17.02;;;10.73;;
69401;SDS011;56589;51.992;5.924;2023-04-06T11:22:23;16.45;;;10.32;;
69401;SDS011;56589;51.992;5.924;2023-04-06T11:24:50;24.48;;;11.57;;
69401;SDS011;56589;51.992;5.924;2023-04-06T11:27:16;16.92;;;10.63;;
69401;SDS011;56589;51.992;5.924;2023-04-06T11:29:43;17.30;;;10.35;;
69401;SDS011;56589;51.992;5.924;2023-04-06T11:32:19;17.63;;;9.73;;
69401;SDS011;56589;51.992;5.924;2023-04-06T11:34:46;14.75;;;10.38;;
69401;SDS011;56589;51.992;5.924;2023-04-06T11:37:13;14.48;;;10.07;;
69401;SDS011;56589;51.992;5.924;2023-04-06T11:39:40;14.32;;;9.68;;
69401;SDS011;56589;51.992;5.924;2023-04-06T11:42:11;13.27;;;9.57;;
69401;SDS011;56589;51.992;5.924;2023-04-06T11:44:38;13.75;;;9.30;;
69401;SDS011;56589;51.992;5.924;2023-04-06T11:47:08;17.55;;;9.48;;
69401;SDS011;56589;51.992;5.924;2023-04-06T11:49:37;12.85;;;9.15;;
69401;SDS011;56589;51.992;5.924;2023-04-06T11:52:13;11.10;;;7.68;;
69401;SDS011;56589;51.992;5.924;2023-04-06T11:54:41;11.60;;;8.15;;
69401;SDS011;56589;51.992;5.924;2023-04-06T11:57:07;14.55;;;8.63;;
69401;SDS011;56589;51.992;5.924;2023-04-06T11:59:34;12.10;;;8.15;;
69401;SDS011;56589;51.992;5.924;2023-04-06T12:02:01;12.80;;;8.15;;
69401;SDS011;56589;51.992;5.924;2023-04-06T12:04:30;11.73;;;8.20;;
69401;SDS011;56589;51.992;5.924;2023-04-06T12:06:56;13.20;;;8.57;;
69401;SDS011;56589;51.992;5.924;2023-04-06T12:09:23;12.20;;;8.20;;
69401;SDS011;56589;51.992;5.924;2023-04-06T12:11:49;13.25;;;8.48;;
69401;SDS011;56589;51.992;5.924;2023-04-06T12:14:15;10.38;;;7.10;;
69401;SDS011;56589;51.992;5.924;2023-04-06T12:16:41;10.60;;;7.57;;
69401;SDS011;56589;51.992;5.924;2023-04-06T12:19:07;10.63;;;6.72;;
69401;SDS011;56589;51.992;5.924;2023-04-06T12:21:36;11.05;;;7.47;;
69401;SDS011;56589;51.992;5.924;2023-04-06T12:24:02;11.38;;;7.10;;
69401;SDS011;56589;51.992;5.924;2023-04-06T12:26:29;11.60;;;7.72;;
69401;SDS011;56589;51.992;5.924;2023-04-06T12:28:56;12.90;;;8.10;;
69401;SDS011;56589;51.992;5.924;2023-04-06T12:31:22;10.55;;;6.93;;
69401;SDS011;56589;51.992;5.924;2023-04-06T12:33:49;12.07;;;7.13;;
69401;SDS011;56589;51.992;5.924;2023-04-06T12:36:15;10.75;;;7.68;;
69401;SDS011;56589;51.992;5.924;2023-04-06T12:38:46;11.52;;;7.15;;
69401;SDS011;56589;51.992;5.924;2023-04-06T12:41:12;11.57;;;7.57;;
69401;SDS011;56589;51.992;5.924;2023-04-06T12:43:38;11.48;;;7.35;;
69401;SDS011;56589;51.992;5.924;2023-04-06T12:46:05;11.18;;;6.85;;
69401;SDS011;56589;51.992;5.924;2023-04-06T12:48:31;11.00;;;6.47;;
69401;SDS011;56589;51.992;5.924;2023-04-06T12:51:05;10.57;;;6.20;;
69401;SDS011;56589;51.992;5.924;2023-04-06T12:53:32;9.13;;;5.55;;
69401;SDS011;56589;51.992;5.924;2023-04-06T12:56:02;8.60;;;5.07;;
69401;SDS011;56589;51.992;5.924;2023-04-06T12:58:35;10.25;;;5.97;;
69401;SDS011;56589;51.992;5.924;2023-04-06T13:01:05;7.07;;;4.80;;
69401;SDS011;56589;51.992;5.924;2023-04-06T13:03:32;10.20;;;5.40;;
69401;SDS011;56589;51.992;5.924;2023-04-06T13:05:58;11.10;;;5.10;;
69401;SDS011;56589;51.992;5.924;2023-04-06T13:08:26;6.93;;;5.05;;
69401;SDS011;56589;51.992;5.924;2023-04-06T13:10:52;7.97;;;5.20;;
69401;SDS011;56589;51.992;5.924;2023-04-06T13:13:22;7.40;;;5.53;;
69401;SDS011;56589;51.992;5.924;2023-04-06T13:15:49;10.07;;;4.82;;
69401;SDS011;56589;51.992;5.924;2023-04-06T13:18:15;7.85;;;4.22;;
69401;SDS011;56589;51.992;5.924;2023-04-06T13:20:41;7.35;;;4.80;;
69401;SDS011;56589;51.992;5.924;2023-04-06T13:23:07;7.88;;;4.90;;
69401;SDS011;56589;51.992;5.924;2023-04-06T13:25:33;6.88;;;4.75;;
69401;SDS011;56589;51.992;5.924;2023-04-06T13:27:59;8.57;;;5.53;;
69401;SDS011;56589;51.992;5.924;2023-04-06T13:30:28;8.25;;;4.97;;
69401;SDS011;56589;51.992;5.924;2023-04-06T13:32:53;7.32;;;4.88;;
69401;SDS011;56589;51.992;5.924;2023-04-06T13:35:19;9.65;;;5.13;;
69401;SDS011;56589;51.992;5.924;2023-04-06T13:37:45;8.80;;;5.53;;
69401;SDS011;56589;51.992;5.924;2023-04-06T13:40:11;8.93;;;5.57;;
69401;SDS011;56589;51.992;5.924;2023-04-06T13:42:37;9.57;;;5.90;;
69401;SDS011;56589;51.992;5.924;2023-04-06T13:45:04;8.63;;;5.45;;
69401;SDS011;56589;51.992;5.924;2023-04-06T13:47:35;8.95;;;5.38;;
69401;SDS011;56589;51.992;5.924;2023-04-06T13:50:00;9.50;;;5.63;;
69401;SDS011;56589;51.992;5.924;2023-04-06T13:52:27;9.70;;;6.28;;
69401;SDS011;56589;51.992;5.924;2023-04-06T13:54:52;8.77;;;6.40;;
69401;SDS011;56589;51.992;5.924;2023-04-06T13:57:18;12.15;;;6.57;;
69401;SDS011;56589;51.992;5.924;2023-04-06T13:59:44;11.63;;;6.65;;
69401;SDS011;56589;51.992;5.924;2023-04-06T14:02:10;10.85;;;6.65;;
69401;SDS011;56589;51.992;5.924;2023-04-06T14:04:39;12.80;;;6.82;;
69401;SDS011;56589;51.992;5.924;2023-04-06T14:07:04;13.68;;;7.35;;
69401;SDS011;56589;51.992;5.924;2023-04-06T14:09:30;12.63;;;7.45;;
69401;SDS011;56589;51.992;5.924;2023-04-06T14:11:56;12.27;;;6.72;;
69401;SDS011;56589;51.992;5.924;2023-04-06T14:14:22;12.73;;;8.00;;
69401;SDS011;56589;51.992;5.924;2023-04-06T14:16:48;10.95;;;6.97;;
69401;SDS011;56589;51.992;5.924;2023-04-06T14:19:14;11.30;;;7.63;;
69401;SDS011;56589;51.992;5.924;2023-04-06T14:21:44;10.52;;;7.22;;
69401;SDS011;56589;51.992;5.924;2023-04-06T14:24:10;11.00;;;7.47;;
69401;SDS011;56589;51.992;5.924;2023-04-06T14:26:37;11.27;;;7.53;;
69401;SDS011;56589;51.992;5.924;2023-04-06T14:29:03;10.20;;;6.95;;
69401;SDS011;56589;51.992;5.924;2023-04-06T14:31:30;10.43;;;7.90;;
69401;SDS011;56589;51.992;5.924;2023-04-06T14:33:57;11.90;;;7.22;;